createdAt,value
2019-03-01T00:01:16.069Z,87.73
2019-03-01T00:03:48.238Z,78.30
2019-03-01T00:06:42.126Z,80.50
2019-03-01T00:09:47.796Z,81.70
2019-03-01T00:12:36.947Z,86.63
2019-03-01T00:15:47.213Z,82.50
2019-03-01T00:18:32.747Z,90.00
2019-03-01T00:21:24.453Z,82.63
2019-03-01T00:24:16.287Z,84.23
2019-03-01T00:27:02.419Z,83.73
2019-03-01T00:29:42.342Z,82.27
2019-03-01T00:32:25.296Z,85.37
2019-03-01T00:35:32.589Z,89.77
2019-03-01T00:38:36.238Z,83.93
2019-03-01T00:41:21.720Z,90.50
2019-03-01T00:44:41.868Z,89.47
2019-03-01T00:47:18.234Z,89.10
2019-03-01T00:49:47.915Z,90.57
2019-03-01T00:52:17.775Z,93.77
2019-03-01T00:54:47.449Z,88.47
2019-03-01T00:57:17.159Z,96.53
2019-03-01T00:59:46.845Z,93.13
2019-03-01T01:02:16.512Z,85.43
2019-03-01T01:04:46.282Z,78.07
2019-03-01T01:07:15.951Z,79.20
2019-03-01T01:09:45.714Z,79.83
2019-03-01T01:12:15.394Z,77.77
2019-03-01T01:14:45.060Z,72.90
2019-03-01T01:17:15.199Z,78.67
2019-03-01T01:19:44.875Z,73.00
2019-03-01T01:22:14.616Z,77.90
2019-03-01T01:24:44.287Z,74.47
2019-03-01T01:27:13.979Z,74.67
2019-03-01T01:29:45.239Z,75.27
2019-03-01T01:32:14.992Z,76.90
2019-03-01T01:34:45.625Z,77.37
2019-03-01T01:37:15.304Z,77.70
2019-03-01T01:39:45.341Z,75.33
2019-03-01T01:42:15.174Z,79.03
2019-03-01T01:44:44.844Z,74.70
2019-03-01T01:47:14.547Z,75.13
2019-03-01T01:49:47.214Z,74.07
2019-03-01T01:52:16.898Z,75.03
2019-03-01T01:54:46.584Z,74.17
2019-03-01T01:57:17.906Z,77.37
2019-03-01T01:59:47.574Z,82.83
2019-03-01T02:02:17.340Z,80.83
2019-03-01T02:04:47.095Z,87.27
2019-03-01T02:07:17.415Z,88.07
2019-03-01T02:09:47.069Z,86.43
2019-03-01T02:12:16.769Z,81.63
2019-03-01T02:14:46.422Z,92.90
2019-03-01T02:17:16.079Z,93.40
2019-03-01T02:19:45.779Z,96.67
2019-03-01T02:22:15.560Z,94.13
2019-03-01T02:24:45.205Z,100.07
2019-03-01T02:27:27.379Z,91.13
2019-03-01T02:29:58.698Z,86.10
2019-03-01T02:32:41.615Z,88.43
2019-03-01T02:35:17.477Z,97.10
2019-03-01T02:37:52.681Z,87.90
2019-03-01T02:40:22.562Z,89.77
2019-03-01T02:42:52.538Z,76.03
2019-03-01T02:45:23.396Z,84.47
2019-03-01T02:47:53.067Z,80.67
2019-03-01T02:50:22.859Z,87.27
2019-03-01T02:52:52.632Z,79.97
2019-03-01T02:55:23.127Z,84.80
2019-03-01T02:57:52.755Z,76.47
2019-03-01T03:00:31.584Z,82.97
2019-03-01T03:03:01.251Z,78.33
2019-03-01T03:05:30.917Z,74.90
2019-03-01T03:08:03.512Z,74.23
2019-03-01T03:10:33.205Z,74.43
2019-03-01T03:13:10.366Z,78.00
2019-03-01T03:15:41.670Z,78.13
2019-03-01T03:18:12.884Z,70.37
2019-03-01T03:20:43.938Z,74.53
2019-03-01T03:23:13.595Z,70.63
2019-03-01T03:25:43.331Z,70.93
2019-03-01T03:28:13.020Z,67.60
2019-03-01T03:30:42.786Z,68.10
2019-03-01T03:33:12.519Z,65.77
2019-03-01T03:35:42.215Z,67.80
2019-03-01T03:38:11.827Z,65.13
2019-03-01T03:40:41.494Z,68.23
2019-03-01T03:43:11.260Z,66.87
2019-03-01T03:45:42.775Z,67.90
2019-03-01T03:48:12.443Z,65.77
2019-03-01T03:50:42.156Z,71.10
2019-03-01T03:53:12.395Z,68.23
2019-03-01T03:55:42.052Z,64.80
2019-03-01T03:58:11.811Z,64.77
2019-03-01T04:00:43.199Z,61.97
2019-03-01T04:03:12.886Z,65.40
2019-03-01T04:05:44.363Z,65.10
2019-03-01T04:08:14.398Z,63.00
2019-03-01T04:10:44.068Z,67.37
2019-03-01T04:13:16.525Z,65.73
2019-03-01T04:15:45.252Z,65.13
2019-03-01T04:18:15.031Z,63.73
2019-03-01T04:20:45.003Z,66.60
2019-03-01T04:23:14.681Z,66.30
2019-03-01T04:25:47.191Z,62.20
2019-03-01T04:28:16.888Z,64.83
2019-03-01T04:30:46.547Z,62.60
2019-03-01T04:33:16.295Z,64.10
2019-03-01T04:35:48.015Z,62.13
2019-03-01T04:38:17.698Z,65.30
2019-03-01T04:40:47.372Z,66.20
2019-03-01T04:43:17.154Z,66.10
2019-03-01T04:45:46.822Z,65.13
2019-03-01T04:48:16.504Z,63.23
2019-03-01T04:50:46.195Z,65.33
2019-03-01T04:53:15.929Z,67.90
2019-03-01T04:55:45.783Z,65.70
2019-03-01T04:58:15.479Z,63.87
2019-03-01T05:00:45.222Z,60.33
2019-03-01T05:03:14.914Z,65.30
2019-03-01T05:05:44.580Z,64.57
2019-03-01T05:08:14.247Z,64.43
2019-03-01T05:10:44.345Z,64.57
2019-03-01T05:13:14.004Z,60.87
2019-03-01T05:15:43.668Z,62.10
2019-03-01T05:18:13.368Z,62.53
2019-03-01T05:20:43.019Z,67.80
2019-03-01T05:23:13.839Z,65.67
2019-03-01T05:25:43.529Z,63.70
2019-03-01T05:28:13.680Z,64.50
2019-03-01T05:30:45.979Z,67.90
2019-03-01T05:33:15.688Z,64.40
2019-03-01T05:35:45.358Z,67.57
2019-03-01T05:38:21.487Z,67.10
2019-03-01T05:40:46.439Z,65.10
2019-03-01T05:43:16.097Z,62.30
2019-03-01T05:45:45.766Z,63.23
2019-03-01T05:48:15.450Z,69.57
2019-03-01T05:50:45.119Z,68.03
2019-03-01T05:53:14.778Z,66.13
2019-03-01T05:55:44.481Z,72.03
2019-03-01T05:58:35.453Z,68.37
2019-03-01T06:01:15.251Z,68.10
2019-03-01T06:04:04.755Z,71.67
2019-03-01T06:06:56.480Z,74.30
2019-03-01T06:09:36.483Z,69.33
2019-03-01T06:12:25.657Z,72.83
2019-03-01T06:15:19.248Z,74.77
2019-03-01T06:18:05.097Z,75.93
2019-03-01T06:20:41.623Z,71.73
2019-03-01T06:23:21.633Z,74.47
2019-03-01T06:26:12.213Z,68.83
2019-03-01T06:29:03.914Z,68.53
2019-03-01T06:31:43.727Z,75.33
2019-03-01T06:34:53.207Z,78.33
2019-03-01T06:38:03.895Z,74.93
2019-03-01T06:41:20.498Z,73.53
2019-03-01T06:44:14.175Z,72.10
2019-03-01T06:47:13.918Z,73.57
2019-03-01T06:49:56.970Z,67.97
2019-03-01T06:52:26.751Z,72.87
2019-03-01T06:54:56.480Z,72.50
2019-03-01T06:57:26.171Z,72.77
2019-03-01T06:59:55.862Z,72.87
2019-03-01T07:02:39.006Z,71.37
2019-03-01T07:05:10.521Z,72.50
2019-03-01T07:07:40.175Z,75.10
2019-03-01T07:10:12.735Z,79.43
2019-03-01T07:12:42.442Z,75.83
2019-03-01T07:15:12.316Z,77.00
2019-03-01T07:17:41.980Z,76.00
2019-03-01T07:20:12.718Z,74.00
2019-03-01T07:22:42.542Z,75.70
2019-03-01T07:25:12.199Z,72.80
2019-03-01T07:27:41.889Z,76.67
2019-03-01T07:30:12.654Z,78.47
2019-03-01T07:32:42.334Z,73.93
2019-03-01T07:35:12.021Z,76.63
2019-03-01T07:37:41.701Z,80.27
2019-03-01T07:40:13.268Z,71.77
2019-03-01T07:42:46.466Z,77.03
2019-03-01T07:45:16.839Z,77.83
2019-03-01T07:47:46.671Z,75.43
2019-03-01T07:50:17.805Z,75.93
2019-03-01T07:52:47.486Z,76.53
2019-03-01T07:55:17.945Z,77.37
2019-03-01T07:57:49.822Z,78.73
2019-03-01T08:00:19.235Z,79.73
2019-03-01T08:02:48.953Z,83.57
2019-03-01T08:05:18.637Z,76.53
2019-03-01T08:07:55.578Z,81.60
2019-03-01T08:10:23.983Z,83.03
2019-03-01T08:12:53.689Z,78.20
2019-03-01T08:15:23.528Z,85.40
2019-03-01T08:17:54.157Z,88.13
2019-03-01T08:20:23.841Z,83.13
2019-03-01T08:22:56.771Z,81.33
2019-03-01T08:25:28.590Z,81.73
2019-03-01T08:27:58.488Z,86.30
2019-03-01T08:30:28.155Z,80.67
2019-03-01T08:32:57.831Z,82.40
2019-03-01T08:35:28.321Z,84.57
2019-03-01T08:37:58.926Z,85.77
2019-03-01T08:40:28.728Z,83.27
2019-03-01T08:42:58.470Z,89.70
2019-03-01T08:45:32.977Z,84.33
2019-03-01T08:48:01.272Z,84.30
2019-03-01T08:50:30.996Z,87.63
2019-03-01T08:53:00.656Z,83.13
2019-03-01T08:55:35.639Z,78.47
2019-03-01T08:58:07.467Z,85.00
2019-03-01T09:00:44.808Z,82.00
2019-03-01T09:03:33.316Z,82.57
2019-03-01T09:06:04.303Z,82.00
2019-03-01T09:08:33.980Z,88.53
2019-03-01T09:11:05.516Z,87.47
2019-03-01T09:13:36.212Z,85.43
2019-03-01T09:16:06.425Z,80.27
2019-03-01T09:18:36.215Z,81.47
2019-03-01T09:21:06.327Z,82.53
2019-03-01T09:23:36.041Z,80.63
2019-03-01T09:26:06.123Z,77.30
2019-03-01T09:28:39.453Z,73.70
2019-03-01T09:31:08.448Z,73.37
2019-03-01T09:33:38.999Z,74.43
2019-03-01T09:36:18.006Z,75.60
2019-03-01T09:38:51.218Z,72.57
2019-03-01T09:41:20.898Z,74.23
2019-03-01T09:43:51.375Z,73.67
2019-03-01T09:46:24.046Z,71.47
2019-03-01T09:48:53.696Z,70.23
2019-03-01T09:51:23.368Z,72.73
2019-03-01T09:53:53.027Z,70.20
2019-03-01T09:56:24.375Z,69.53
2019-03-01T09:58:54.264Z,68.40
2019-03-01T10:01:23.938Z,68.23
2019-03-01T10:03:53.616Z,69.33
2019-03-01T10:06:23.313Z,65.47
2019-03-01T10:08:52.999Z,72.17
2019-03-01T10:11:22.668Z,67.23
2019-03-01T10:13:54.177Z,70.17
2019-03-01T10:16:23.959Z,68.87
2019-03-01T10:18:55.701Z,71.50
2019-03-01T10:21:27.916Z,72.47
2019-03-01T10:23:58.883Z,70.23
2019-03-01T10:26:28.565Z,69.23
2019-03-01T10:28:58.251Z,75.83
2019-03-01T10:31:27.938Z,71.67
2019-03-01T10:33:57.749Z,70.33
2019-03-01T10:36:27.416Z,72.57
2019-03-01T10:38:57.169Z,70.50
2019-03-01T10:41:26.868Z,73.07
2019-03-01T10:43:56.545Z,69.73
2019-03-01T10:46:27.236Z,67.00
2019-03-01T10:49:00.885Z,71.33
2019-03-01T10:51:30.614Z,68.37
2019-03-01T10:54:00.260Z,68.20
2019-03-01T10:56:32.971Z,66.77
2019-03-01T10:59:23.337Z,68.60
2019-03-01T11:01:55.072Z,67.30
2019-03-01T11:04:26.228Z,70.47
2019-03-01T11:06:58.913Z,67.73
2019-03-01T11:09:28.616Z,69.73
2019-03-01T11:11:59.229Z,71.63
2019-03-01T11:14:28.885Z,69.43
2019-03-01T11:16:58.587Z,72.00
2019-03-01T11:19:28.238Z,65.53
2019-03-01T11:21:57.901Z,70.90
2019-03-01T11:24:27.637Z,69.77
2019-03-01T11:26:57.331Z,80.97
2019-03-01T11:29:26.991Z,74.57
2019-03-01T11:31:56.697Z,78.77
2019-03-01T11:34:26.378Z,70.77
2019-03-01T11:36:56.327Z,73.80
2019-03-01T11:39:26.483Z,68.93
2019-03-01T11:41:56.145Z,74.43
2019-03-01T11:44:26.153Z,69.67
2019-03-01T11:46:57.140Z,71.33
2019-03-01T11:49:26.815Z,68.63
2019-03-01T11:51:57.960Z,70.23
2019-03-01T11:54:30.077Z,69.10
2019-03-01T11:56:59.756Z,70.90
2019-03-01T11:59:29.435Z,70.57
2019-03-01T12:02:00.330Z,73.53
2019-03-01T12:04:30.047Z,68.50
2019-03-01T12:06:59.777Z,74.13
2019-03-01T12:09:29.898Z,72.00
2019-03-01T12:11:59.565Z,71.13
2019-03-01T12:14:29.251Z,71.60
2019-03-01T12:16:58.942Z,69.23
2019-03-01T12:19:28.624Z,72.80
2019-03-01T12:21:58.316Z,70.00
2019-03-01T12:24:28.012Z,68.97
2019-03-01T12:26:58.514Z,67.33
2019-03-01T12:29:28.178Z,68.77
2019-03-01T12:31:58.045Z,68.30
2019-03-01T12:34:27.719Z,67.40
2019-03-01T12:36:57.453Z,72.03
2019-03-01T12:39:27.146Z,69.13
2019-03-01T12:41:56.832Z,68.10
2019-03-01T12:44:26.576Z,69.53
2019-03-01T12:46:56.372Z,69.93
2019-03-01T12:49:26.051Z,72.37
2019-03-01T12:51:57.350Z,70.23
2019-03-01T12:54:27.055Z,72.27
2019-03-01T12:57:02.559Z,71.03
2019-03-01T12:59:32.238Z,67.43
2019-03-01T13:02:01.925Z,69.77
2019-03-01T13:04:31.658Z,68.87
2019-03-01T13:07:01.326Z,68.83
2019-03-01T13:09:31.009Z,72.17
2019-03-01T13:12:01.278Z,68.47
2019-03-01T13:14:30.941Z,68.00
2019-03-01T13:17:01.710Z,69.70
2019-03-01T13:19:32.027Z,72.07
2019-03-01T13:22:03.164Z,70.03
2019-03-01T13:24:32.863Z,71.23
2019-03-01T13:27:02.534Z,69.47
2019-03-01T13:29:32.229Z,72.47
2019-03-01T13:32:01.901Z,70.00
2019-03-01T13:34:31.595Z,69.57
2019-03-01T13:37:01.284Z,71.17
2019-03-01T13:39:30.976Z,70.13
2019-03-01T13:42:00.663Z,77.27
2019-03-01T13:44:31.979Z,71.23
2019-03-01T13:47:01.683Z,71.00
2019-03-01T13:49:31.444Z,71.60
2019-03-01T13:52:01.088Z,71.33
2019-03-01T13:54:30.790Z,68.93
2019-03-01T13:57:00.467Z,69.17
2019-03-01T13:59:30.135Z,69.57
2019-03-01T14:01:59.817Z,70.10
2019-03-01T14:04:29.483Z,69.23
2019-03-01T14:06:59.138Z,67.93
2019-03-01T14:09:28.829Z,72.40
2019-03-01T14:11:59.354Z,73.50
2019-03-01T14:14:29.958Z,72.73
2019-03-01T14:17:01.280Z,70.73
2019-03-01T14:19:30.952Z,72.03
2019-03-01T14:22:00.629Z,68.53
2019-03-01T14:24:30.541Z,70.17
2019-03-01T14:27:00.458Z,66.97
2019-03-01T14:29:53.666Z,69.67
2019-03-01T14:32:21.861Z,67.30
2019-03-01T14:34:51.727Z,68.03
2019-03-01T14:37:21.425Z,68.00
2019-03-01T14:39:54.010Z,66.50
2019-03-01T14:42:23.682Z,66.50
2019-03-01T14:44:53.384Z,67.87
2019-03-01T14:47:42.376Z,70.93
2019-03-01T14:50:16.962Z,65.93
2019-03-01T14:52:46.849Z,68.70
2019-03-01T14:55:38.539Z,68.97
2019-03-01T14:58:30.386Z,67.53
2019-03-01T15:01:07.408Z,68.90
2019-03-01T15:03:40.617Z,70.83
2019-03-01T15:06:10.914Z,69.77
2019-03-01T15:08:44.273Z,67.13
2019-03-01T15:11:17.067Z,64.43
2019-03-01T15:13:50.799Z,69.47
2019-03-01T15:16:22.176Z,68.93
2019-03-01T15:18:51.836Z,71.27
2019-03-01T15:21:21.579Z,67.77
2019-03-01T15:23:56.194Z,68.77
2019-03-01T15:26:26.659Z,67.00
2019-03-01T15:28:58.771Z,71.07
2019-03-01T15:31:28.704Z,66.03
2019-03-01T15:34:00.085Z,70.60
2019-03-01T15:36:29.741Z,68.20
2019-03-01T15:38:59.434Z,67.83
2019-03-01T15:41:29.115Z,70.23
2019-03-01T15:43:58.822Z,62.67
2019-03-01T15:46:32.174Z,66.23
2019-03-01T15:49:05.128Z,66.87
2019-03-01T15:51:38.075Z,70.90
2019-03-01T15:54:06.073Z,66.67
2019-03-01T15:56:35.867Z,67.70
2019-03-01T15:59:09.677Z,67.27
2019-03-01T16:01:37.983Z,64.87
2019-03-01T16:04:26.972Z,64.13
2019-03-01T16:06:56.653Z,68.20
2019-03-01T16:09:26.455Z,64.50
2019-03-01T16:11:57.704Z,62.33
2019-03-01T16:14:27.365Z,65.83
2019-03-01T16:16:57.024Z,66.50
2019-03-01T16:19:26.733Z,64.10
2019-03-01T16:21:56.691Z,65.83
2019-03-01T16:24:26.379Z,65.73
2019-03-01T16:26:56.076Z,67.03
2019-03-01T16:29:25.734Z,67.03
2019-03-01T16:31:55.412Z,65.43
2019-03-01T16:34:27.531Z,70.60
2019-03-01T16:36:57.784Z,67.03
2019-03-01T16:39:27.462Z,64.23
2019-03-01T16:41:57.154Z,68.27
2019-03-01T16:44:26.828Z,65.57
2019-03-01T16:46:56.538Z,63.03
2019-03-01T16:49:27.241Z,66.17
2019-03-01T16:51:58.580Z,64.27
2019-03-01T16:54:28.635Z,64.00
2019-03-01T16:57:18.624Z,65.70
2019-03-01T16:59:48.776Z,62.70
2019-03-01T17:02:18.476Z,64.73
2019-03-01T17:04:48.180Z,66.97
2019-03-01T17:07:17.851Z,64.90
2019-03-01T17:09:51.328Z,63.93
2019-03-01T17:12:18.963Z,64.47
2019-03-01T17:14:48.636Z,69.40
2019-03-01T17:17:18.321Z,64.20
2019-03-01T17:19:48.014Z,63.83
2019-03-01T17:22:17.682Z,67.10
2019-03-01T17:24:51.254Z,63.90
2019-03-01T17:27:22.909Z,65.57
2019-03-01T17:29:52.573Z,64.77
2019-03-01T17:32:22.251Z,65.83
2019-03-01T17:34:53.133Z,67.83
2019-03-01T17:37:25.842Z,64.17
2019-03-01T17:39:56.511Z,63.23
2019-03-01T17:42:27.326Z,65.40
2019-03-01T17:44:57.005Z,64.80
2019-03-01T17:47:26.678Z,70.07
2019-03-01T17:49:56.362Z,66.53
2019-03-01T17:52:39.299Z,65.70
2019-03-01T17:55:15.672Z,70.27
2019-03-01T17:57:45.322Z,66.93
2019-03-01T18:00:33.687Z,66.50
2019-03-01T18:03:03.431Z,63.83
2019-03-01T18:05:33.093Z,66.23
2019-03-01T18:08:03.584Z,65.47
2019-03-01T18:10:34.313Z,66.50
2019-03-01T18:13:06.304Z,65.67
2019-03-01T18:15:37.996Z,63.73
2019-03-01T18:18:08.886Z,64.47
2019-03-01T18:20:39.143Z,61.23
2019-03-01T18:23:08.828Z,65.20
2019-03-01T18:25:38.610Z,63.67
2019-03-01T18:28:08.285Z,67.13
2019-03-01T18:30:38.097Z,61.67
2019-03-01T18:33:07.754Z,64.03
2019-03-01T18:35:37.486Z,65.90
2019-03-01T18:38:07.174Z,61.27
2019-03-01T18:40:37.215Z,62.33
2019-03-01T18:43:09.805Z,61.73
2019-03-01T18:45:38.526Z,60.93
2019-03-01T18:48:11.222Z,63.80
2019-03-01T18:50:41.396Z,62.93
2019-03-01T18:53:11.351Z,61.13
2019-03-01T18:55:40.846Z,60.03
2019-03-01T18:58:13.897Z,58.50
2019-03-01T19:00:48.668Z,57.93
2019-03-01T19:03:18.347Z,59.57
2019-03-01T19:05:48.027Z,60.57
2019-03-01T19:08:18.055Z,61.83
2019-03-01T19:10:54.182Z,59.03
2019-03-01T19:13:20.752Z,58.83
2019-03-01T19:15:54.425Z,58.93
2019-03-01T19:18:21.974Z,59.97
2019-03-01T19:20:55.901Z,57.47
2019-03-01T19:23:29.383Z,56.10
2019-03-01T19:26:01.719Z,61.07
2019-03-01T19:28:29.952Z,59.63
2019-03-01T19:30:59.765Z,55.50
2019-03-01T19:33:29.440Z,57.87
2019-03-01T19:36:00.605Z,62.43
2019-03-01T19:38:32.763Z,59.17
2019-03-01T19:41:02.828Z,55.93
2019-03-01T19:43:34.574Z,58.63
2019-03-01T19:46:04.771Z,57.63
2019-03-01T19:48:37.052Z,56.67
2019-03-01T19:51:08.746Z,55.57
2019-03-01T19:53:38.443Z,62.07
2019-03-01T19:56:08.152Z,59.03
2019-03-01T19:58:37.810Z,56.10
2019-03-01T20:01:07.497Z,57.33
2019-03-01T20:03:37.207Z,55.27
2019-03-01T20:06:07.848Z,57.00
2019-03-01T20:08:38.300Z,56.10
2019-03-01T20:11:07.999Z,56.93
2019-03-01T20:13:39.242Z,57.07
2019-03-01T20:16:09.000Z,57.70
2019-03-01T20:18:41.716Z,56.63
2019-03-01T20:21:10.575Z,56.73
2019-03-01T20:23:40.247Z,57.50
2019-03-01T20:26:09.958Z,55.57
2019-03-01T20:28:40.576Z,55.47
2019-03-01T20:31:10.223Z,58.13
2019-03-01T20:33:40.004Z,56.33
2019-03-01T20:36:09.818Z,54.57
2019-03-01T20:38:40.006Z,55.03
2019-03-01T20:41:10.593Z,57.83
2019-03-01T20:43:41.833Z,54.73
2019-03-01T20:46:11.766Z,54.77
2019-03-01T20:48:41.475Z,56.60
2019-03-01T20:51:11.146Z,58.83
2019-03-01T20:53:40.921Z,56.50
2019-03-01T20:56:13.791Z,55.63
2019-03-01T20:58:42.029Z,59.10
2019-03-01T21:01:11.717Z,57.93
2019-03-01T21:03:41.411Z,54.43
2019-03-01T21:06:11.122Z,54.47
2019-03-01T21:08:41.859Z,53.33
2019-03-01T21:11:12.553Z,54.47
2019-03-01T21:13:45.676Z,52.47
2019-03-01T21:16:13.707Z,54.93
2019-03-01T21:18:43.428Z,58.67
2019-03-01T21:21:13.108Z,56.00
2019-03-01T21:23:43.993Z,58.07
2019-03-01T21:26:15.630Z,55.80
2019-03-01T21:28:45.114Z,54.10
2019-03-01T21:31:14.836Z,55.93
2019-03-01T21:33:44.347Z,51.27
2019-03-01T21:36:14.152Z,52.63
2019-03-01T21:38:45.599Z,51.30
2019-03-01T21:41:16.778Z,55.93
2019-03-01T21:43:46.444Z,55.27
2019-03-01T21:46:16.143Z,55.67
2019-03-01T21:48:47.299Z,53.10
2019-03-01T21:51:18.553Z,56.20
2019-03-01T21:53:48.571Z,54.60
2019-03-01T21:56:18.273Z,52.40
2019-03-01T21:58:47.956Z,54.30
2019-03-01T22:01:17.626Z,56.33
2019-03-01T22:03:47.333Z,56.00
2019-03-01T22:06:17.016Z,55.43
2019-03-01T22:08:48.667Z,54.43
2019-03-01T22:11:18.146Z,55.17
2019-03-01T22:13:47.837Z,58.00
2019-03-01T22:16:17.517Z,60.00
2019-03-01T22:18:47.211Z,54.63
2019-03-01T22:21:22.579Z,55.40
2019-03-01T22:23:51.564Z,52.30
2019-03-01T22:26:21.020Z,54.00
2019-03-01T22:28:50.670Z,54.90
2019-03-01T22:31:20.618Z,55.20
2019-03-01T22:33:52.518Z,55.07
2019-03-01T22:36:27.519Z,54.07
2019-03-01T22:38:57.359Z,57.80
2019-03-01T22:41:27.210Z,56.83
2019-03-01T22:43:58.301Z,55.53
2019-03-01T22:46:30.058Z,58.37
2019-03-01T22:49:01.568Z,49.63
2019-03-01T22:51:34.041Z,53.10
2019-03-01T22:54:03.718Z,53.83
2019-03-01T22:56:34.846Z,55.30
2019-03-01T22:59:08.590Z,57.27
2019-03-01T23:01:40.810Z,54.07
2019-03-01T23:04:30.313Z,60.93
2019-03-01T23:07:00.030Z,55.13
2019-03-01T23:09:29.817Z,57.30
2019-03-01T23:11:59.526Z,54.47
2019-03-01T23:14:30.771Z,53.73
2019-03-01T23:17:14.177Z,52.43
2019-03-01T23:19:43.836Z,51.43
2019-03-01T23:22:13.540Z,55.23
2019-03-01T23:24:45.606Z,52.67
2019-03-01T23:27:15.273Z,51.37
2019-03-01T23:29:45.231Z,53.40
2019-03-01T23:32:16.736Z,56.53
2019-03-01T23:34:46.528Z,54.87
2019-03-01T23:37:16.806Z,54.07
2019-03-01T23:39:46.534Z,53.10
2019-03-01T23:42:17.392Z,52.33
2019-03-01T23:44:47.895Z,55.83
2019-03-01T23:47:17.601Z,51.23
2019-03-01T23:49:47.265Z,55.00
2019-03-01T23:52:19.645Z,56.97
2019-03-01T23:54:48.748Z,62.33
2019-03-01T23:57:18.244Z,57.07
2019-03-01T23:59:47.916Z,57.63
